sensor_id;sensor_type;location;lat;lon;timestamp;P1;durP1;ratioP1;P2;durP2;ratioP2
7444;SDS011;3764;48.126;11.594;2022-07-29T00:01:48;2.17;;;1.90;;
7444;SDS011;3764;48.126;11.594;2022-07-29T00:04:17;2.90;;;1.97;;
7444;SDS011;3764;48.126;11.594;2022-07-29T00:06:45;1.90;;;1.60;;
7444;SDS011;3764;48.126;11.594;2022-07-29T00:09:12;2.13;;;1.70;;
7444;SDS011;3764;48.126;11.594;2022-07-29T00:11:40;3.47;;;2.10;;
7444;SDS011;3764;48.126;11.594;2022-07-29T00:14:07;3.67;;;2.10;;
7444;SDS011;3764;48.126;11.594;2022-07-29T00:16:34;4.10;;;2.20;;
7444;SDS011;3764;48.126;11.594;2022-07-29T00:19:01;3.20;;;2.03;;
7444;SDS011;3764;48.126;11.594;2022-07-29T00:21:29;2.90;;;1.80;;
7444;SDS011;3764;48.126;11.594;2022-07-29T00:23:57;3.20;;;2.27;;
7444;SDS011;3764;48.126;11.594;2022-07-29T00:26:24;5.10;;;2.90;;
7444;SDS011;3764;48.126;11.594;2022-07-29T00:28:56;2.53;;;2.13;;
7444;SDS011;3764;48.126;11.594;2022-07-29T00:31:24;2.43;;;2.23;;
7444;SDS011;3764;48.126;11.594;2022-07-29T00:33:51;2.83;;;2.33;;
7444;SDS011;3764;48.126;11.594;2022-07-29T00:36:18;2.60;;;2.30;;
7444;SDS011;3764;48.126;11.594;2022-07-29T00:38:46;3.00;;;2.30;;
7444;SDS011;3764;48.126;11.594;2022-07-29T00:41:14;3.20;;;2.10;;
7444;SDS011;3764;48.126;11.594;2022-07-29T00:43:41;2.37;;;2.17;;
7444;SDS011;3764;48.126;11.594;2022-07-29T00:46:08;2.53;;;2.17;;
7444;SDS011;3764;48.126;11.594;2022-07-29T00:48:36;2.77;;;2.40;;
7444;SDS011;3764;48.126;11.594;2022-07-29T00:51:03;2.43;;;2.20;;
7444;SDS011;3764;48.126;11.594;2022-07-29T00:53:32;2.57;;;2.20;;
7444;SDS011;3764;48.126;11.594;2022-07-29T00:56:01;2.23;;;2.00;;
7444;SDS011;3764;48.126;11.594;2022-07-29T00:58:30;2.40;;;2.20;;
7444;SDS011;3764;48.126;11.594;2022-07-29T01:01:01;3.13;;;1.90;;
7444;SDS011;3764;48.126;11.594;2022-07-29T01:03:28;2.60;;;1.97;;
7444;SDS011;3764;48.126;11.594;2022-07-29T01:05:55;2.10;;;1.90;;
7444;SDS011;3764;48.126;11.594;2022-07-29T01:08:22;2.17;;;1.70;;
7444;SDS011;3764;48.126;11.594;2022-07-29T01:10:50;3.03;;;2.30;;
7444;SDS011;3764;48.126;11.594;2022-07-29T01:13:18;3.23;;;2.30;;
7444;SDS011;3764;48.126;11.594;2022-07-29T01:15:56;3.53;;;1.90;;
7444;SDS011;3764;48.126;11.594;2022-07-29T01:18:28;2.67;;;1.83;;
7444;SDS011;3764;48.126;11.594;2022-07-29T01:21:04;4.40;;;1.97;;
7444;SDS011;3764;48.126;11.594;2022-07-29T01:23:48;3.83;;;1.93;;
7444;SDS011;3764;48.126;11.594;2022-07-29T01:26:30;2.10;;;1.70;;
7444;SDS011;3764;48.126;11.594;2022-07-29T01:29:07;2.00;;;1.80;;
7444;SDS011;3764;48.126;11.594;2022-07-29T01:31:42;2.20;;;1.60;;
7444;SDS011;3764;48.126;11.594;2022-07-29T01:34:15;1.97;;;1.70;;
7444;SDS011;3764;48.126;11.594;2022-07-29T01:36:48;2.20;;;1.70;;
7444;SDS011;3764;48.126;11.594;2022-07-29T01:39:22;2.17;;;1.50;;
7444;SDS011;3764;48.126;11.594;2022-07-29T01:44:41;2.17;;;1.70;;
7444;SDS011;3764;48.126;11.594;2022-07-29T01:47:15;2.17;;;1.53;;
7444;SDS011;3764;48.126;11.594;2022-07-29T01:49:47;1.43;;;1.13;;
7444;SDS011;3764;48.126;11.594;2022-07-29T01:52:19;2.27;;;1.13;;
7444;SDS011;3764;48.126;11.594;2022-07-29T01:54:53;2.07;;;1.37;;
7444;SDS011;3764;48.126;11.594;2022-07-29T01:57:30;1.70;;;1.20;;
7444;SDS011;3764;48.126;11.594;2022-07-29T02:00:01;2.10;;;1.40;;
7444;SDS011;3764;48.126;11.594;2022-07-29T02:02:29;2.10;;;1.40;;
7444;SDS011;3764;48.126;11.594;2022-07-29T02:04:58;1.43;;;1.17;;
7444;SDS011;3764;48.126;11.594;2022-07-29T02:07:27;1.80;;;1.37;;
7444;SDS011;3764;48.126;11.594;2022-07-29T02:09:58;2.87;;;1.20;;
7444;SDS011;3764;48.126;11.594;2022-07-29T02:12:27;1.87;;;1.47;;
7444;SDS011;3764;48.126;11.594;2022-07-29T02:14:59;2.17;;;1.10;;
7444;SDS011;3764;48.126;11.594;2022-07-29T02:17:31;1.77;;;1.00;;
7444;SDS011;3764;48.126;11.594;2022-07-29T02:20:03;1.40;;;1.13;;
7444;SDS011;3764;48.126;11.594;2022-07-29T02:22:33;1.50;;;1.17;;
7444;SDS011;3764;48.126;11.594;2022-07-29T02:25:04;1.97;;;1.63;;
7444;SDS011;3764;48.126;11.594;2022-07-29T02:27:33;3.53;;;1.50;;
7444;SDS011;3764;48.126;11.594;2022-07-29T02:30:03;2.23;;;1.40;;
7444;SDS011;3764;48.126;11.594;2022-07-29T02:32:32;1.70;;;1.30;;
7444;SDS011;3764;48.126;11.594;2022-07-29T02:35:03;1.80;;;1.40;;
7444;SDS011;3764;48.126;11.594;2022-07-29T02:37:32;1.80;;;1.40;;
7444;SDS011;3764;48.126;11.594;2022-07-29T02:40:00;2.80;;;1.67;;
7444;SDS011;3764;48.126;11.594;2022-07-29T02:42:27;3.40;;;1.20;;
7444;SDS011;3764;48.126;11.594;2022-07-29T02:44:55;1.50;;;1.10;;
7444;SDS011;3764;48.126;11.594;2022-07-29T02:47:27;2.20;;;1.70;;
7444;SDS011;3764;48.126;11.594;2022-07-29T02:50:00;2.80;;;1.40;;
7444;SDS011;3764;48.126;11.594;2022-07-29T02:52:35;5.20;;;1.00;;
7444;SDS011;3764;48.126;11.594;2022-07-29T02:55:07;1.63;;;1.30;;
7444;SDS011;3764;48.126;11.594;2022-07-29T02:57:41;1.73;;;1.10;;
7444;SDS011;3764;48.126;11.594;2022-07-29T03:00:11;3.03;;;1.70;;
7444;SDS011;3764;48.126;11.594;2022-07-29T03:02:42;1.60;;;1.10;;
7444;SDS011;3764;48.126;11.594;2022-07-29T03:05:14;3.50;;;1.50;;
7444;SDS011;3764;48.126;11.594;2022-07-29T03:07:45;1.90;;;1.50;;
7444;SDS011;3764;48.126;11.594;2022-07-29T03:10:15;1.93;;;1.47;;
7444;SDS011;3764;48.126;11.594;2022-07-29T03:12:43;2.43;;;1.37;;
7444;SDS011;3764;48.126;11.594;2022-07-29T03:15:10;1.80;;;1.50;;
7444;SDS011;3764;48.126;11.594;2022-07-29T03:17:38;6.43;;;1.60;;
7444;SDS011;3764;48.126;11.594;2022-07-29T03:20:08;2.47;;;1.50;;
7444;SDS011;3764;48.126;11.594;2022-07-29T03:22:38;2.37;;;1.40;;
7444;SDS011;3764;48.126;11.594;2022-07-29T03:25:08;1.67;;;1.30;;
7444;SDS011;3764;48.126;11.594;2022-07-29T03:27:36;2.60;;;1.33;;
7444;SDS011;3764;48.126;11.594;2022-07-29T03:30:03;2.93;;;1.47;;
7444;SDS011;3764;48.126;11.594;2022-07-29T03:32:31;1.97;;;1.70;;
7444;SDS011;3764;48.126;11.594;2022-07-29T03:35:00;1.90;;;1.50;;
7444;SDS011;3764;48.126;11.594;2022-07-29T03:37:27;3.57;;;1.50;;
7444;SDS011;3764;48.126;11.594;2022-07-29T03:39:56;1.97;;;1.57;;
7444;SDS011;3764;48.126;11.594;2022-07-29T03:42:25;2.17;;;1.60;;
7444;SDS011;3764;48.126;11.594;2022-07-29T03:44:58;2.30;;;1.37;;
7444;SDS011;3764;48.126;11.594;2022-07-29T03:47:28;1.70;;;1.40;;
7444;SDS011;3764;48.126;11.594;2022-07-29T03:49:57;1.83;;;1.37;;
7444;SDS011;3764;48.126;11.594;2022-07-29T03:52:29;2.00;;;1.67;;
7444;SDS011;3764;48.126;11.594;2022-07-29T03:54:56;1.60;;;1.40;;
7444;SDS011;3764;48.126;11.594;2022-07-29T03:57:24;4.00;;;1.80;;
7444;SDS011;3764;48.126;11.594;2022-07-29T03:59:54;2.07;;;1.57;;
7444;SDS011;3764;48.126;11.594;2022-07-29T04:02:21;1.60;;;1.40;;
7444;SDS011;3764;48.126;11.594;2022-07-29T04:04:49;3.03;;;1.70;;
7444;SDS011;3764;48.126;11.594;2022-07-29T04:07:18;1.73;;;1.40;;
7444;SDS011;3764;48.126;11.594;2022-07-29T04:09:45;1.70;;;1.60;;
7444;SDS011;3764;48.126;11.594;2022-07-29T04:12:13;2.10;;;1.70;;
7444;SDS011;3764;48.126;11.594;2022-07-29T04:14:40;2.03;;;1.60;;
7444;SDS011;3764;48.126;11.594;2022-07-29T04:17:07;2.23;;;1.67;;
7444;SDS011;3764;48.126;11.594;2022-07-29T04:19:34;3.00;;;1.67;;
7444;SDS011;3764;48.126;11.594;2022-07-29T04:22:01;2.67;;;1.93;;
7444;SDS011;3764;48.126;11.594;2022-07-29T04:24:29;1.90;;;1.70;;
7444;SDS011;3764;48.126;11.594;2022-07-29T04:26:57;2.93;;;2.10;;
7444;SDS011;3764;48.126;11.594;2022-07-29T04:29:24;2.40;;;1.50;;
7444;SDS011;3764;48.126;11.594;2022-07-29T04:31:51;3.03;;;2.10;;
7444;SDS011;3764;48.126;11.594;2022-07-29T04:34:18;2.43;;;1.90;;
7444;SDS011;3764;48.126;11.594;2022-07-29T04:36:45;4.33;;;2.03;;
7444;SDS011;3764;48.126;11.594;2022-07-29T04:39:12;2.90;;;1.70;;
7444;SDS011;3764;48.126;11.594;2022-07-29T04:41:41;3.60;;;2.13;;
7444;SDS011;3764;48.126;11.594;2022-07-29T04:44:08;2.10;;;1.70;;
7444;SDS011;3764;48.126;11.594;2022-07-29T04:46:35;2.50;;;2.10;;
7444;SDS011;3764;48.126;11.594;2022-07-29T04:49:02;6.53;;;2.20;;
7444;SDS011;3764;48.126;11.594;2022-07-29T04:51:29;3.33;;;2.40;;
7444;SDS011;3764;48.126;11.594;2022-07-29T04:53:57;2.57;;;1.60;;
7444;SDS011;3764;48.126;11.594;2022-07-29T04:56:24;2.50;;;1.70;;
7444;SDS011;3764;48.126;11.594;2022-07-29T04:58:52;3.40;;;1.60;;
7444;SDS011;3764;48.126;11.594;2022-07-29T05:01:19;2.30;;;1.90;;
7444;SDS011;3764;48.126;11.594;2022-07-29T05:03:47;4.70;;;1.80;;
7444;SDS011;3764;48.126;11.594;2022-07-29T05:06:14;2.83;;;2.30;;
7444;SDS011;3764;48.126;11.594;2022-07-29T05:08:41;4.70;;;2.30;;
7444;SDS011;3764;48.126;11.594;2022-07-29T05:11:08;2.17;;;1.97;;
7444;SDS011;3764;48.126;11.594;2022-07-29T05:13:35;2.20;;;1.63;;
7444;SDS011;3764;48.126;11.594;2022-07-29T05:16:04;2.57;;;2.00;;
7444;SDS011;3764;48.126;11.594;2022-07-29T05:18:31;2.63;;;2.07;;
7444;SDS011;3764;48.126;11.594;2022-07-29T05:20:58;2.70;;;2.50;;
7444;SDS011;3764;48.126;11.594;2022-07-29T05:23:25;6.33;;;2.20;;
7444;SDS011;3764;48.126;11.594;2022-07-29T05:25:52;3.40;;;2.77;;
7444;SDS011;3764;48.126;11.594;2022-07-29T05:28:19;2.57;;;2.33;;
7444;SDS011;3764;48.126;11.594;2022-07-29T05:30:47;2.87;;;2.27;;
7444;SDS011;3764;48.126;11.594;2022-07-29T05:33:15;3.23;;;2.20;;
7444;SDS011;3764;48.126;11.594;2022-07-29T05:35:43;3.20;;;1.97;;
7444;SDS011;3764;48.126;11.594;2022-07-29T05:38:10;2.70;;;2.47;;
7444;SDS011;3764;48.126;11.594;2022-07-29T05:40:37;2.50;;;2.30;;
7444;SDS011;3764;48.126;11.594;2022-07-29T05:43:04;4.30;;;2.53;;
7444;SDS011;3764;48.126;11.594;2022-07-29T05:45:31;2.83;;;2.27;;
7444;SDS011;3764;48.126;11.594;2022-07-29T05:47:58;3.37;;;2.57;;
7444;SDS011;3764;48.126;11.594;2022-07-29T05:50:26;3.80;;;2.20;;
7444;SDS011;3764;48.126;11.594;2022-07-29T05:52:53;3.00;;;2.30;;
7444;SDS011;3764;48.126;11.594;2022-07-29T05:55:20;3.80;;;2.57;;
7444;SDS011;3764;48.126;11.594;2022-07-29T05:57:47;2.90;;;2.60;;
7444;SDS011;3764;48.126;11.594;2022-07-29T06:00:15;2.63;;;1.83;;
7444;SDS011;3764;48.126;11.594;2022-07-29T06:02:42;3.27;;;1.83;;
7444;SDS011;3764;48.126;11.594;2022-07-29T06:05:09;2.70;;;2.20;;
7444;SDS011;3764;48.126;11.594;2022-07-29T06:07:38;3.60;;;3.00;;
7444;SDS011;3764;48.126;11.594;2022-07-29T06:10:06;2.47;;;2.13;;
7444;SDS011;3764;48.126;11.594;2022-07-29T06:12:34;3.43;;;2.33;;
7444;SDS011;3764;48.126;11.594;2022-07-29T06:15:01;3.20;;;2.30;;
7444;SDS011;3764;48.126;11.594;2022-07-29T06:17:28;2.70;;;2.30;;
7444;SDS011;3764;48.126;11.594;2022-07-29T06:19:55;3.07;;;2.43;;
7444;SDS011;3764;48.126;11.594;2022-07-29T06:22:22;3.13;;;2.07;;
7444;SDS011;3764;48.126;11.594;2022-07-29T06:24:51;2.70;;;2.17;;
7444;SDS011;3764;48.126;11.594;2022-07-29T06:27:18;2.53;;;1.73;;
7444;SDS011;3764;48.126;11.594;2022-07-29T06:29:45;2.87;;;2.10;;
7444;SDS011;3764;48.126;11.594;2022-07-29T06:32:12;2.30;;;1.90;;
7444;SDS011;3764;48.126;11.594;2022-07-29T06:34:39;2.53;;;2.07;;
7444;SDS011;3764;48.126;11.594;2022-07-29T06:37:07;2.37;;;2.00;;
7444;SDS011;3764;48.126;11.594;2022-07-29T06:39:34;2.90;;;2.00;;
7444;SDS011;3764;48.126;11.594;2022-07-29T06:42:03;4.13;;;2.20;;
7444;SDS011;3764;48.126;11.594;2022-07-29T06:44:31;3.00;;;2.37;;
7444;SDS011;3764;48.126;11.594;2022-07-29T06:46:59;3.40;;;2.37;;
7444;SDS011;3764;48.126;11.594;2022-07-29T06:49:26;2.40;;;2.20;;
7444;SDS011;3764;48.126;11.594;2022-07-29T06:51:54;4.70;;;2.30;;
7444;SDS011;3764;48.126;11.594;2022-07-29T06:54:21;3.77;;;2.43;;
7444;SDS011;3764;48.126;11.594;2022-07-29T06:56:48;2.80;;;2.43;;
7444;SDS011;3764;48.126;11.594;2022-07-29T06:59:17;2.30;;;1.93;;
7444;SDS011;3764;48.126;11.594;2022-07-29T07:01:44;2.33;;;2.13;;
7444;SDS011;3764;48.126;11.594;2022-07-29T07:04:11;3.30;;;2.53;;
7444;SDS011;3764;48.126;11.594;2022-07-29T07:06:38;4.07;;;2.90;;
7444;SDS011;3764;48.126;11.594;2022-07-29T07:09:06;3.60;;;2.33;;
7444;SDS011;3764;48.126;11.594;2022-07-29T07:11:33;2.60;;;2.40;;
7444;SDS011;3764;48.126;11.594;2022-07-29T07:14:00;2.23;;;1.80;;
7444;SDS011;3764;48.126;11.594;2022-07-29T07:16:28;3.60;;;2.30;;
7444;SDS011;3764;48.126;11.594;2022-07-29T07:18:55;4.97;;;2.53;;
7444;SDS011;3764;48.126;11.594;2022-07-29T07:21:23;5.40;;;2.60;;
7444;SDS011;3764;48.126;11.594;2022-07-29T07:23:50;3.60;;;2.70;;
7444;SDS011;3764;48.126;11.594;2022-07-29T07:26:17;3.33;;;2.23;;
7444;SDS011;3764;48.126;11.594;2022-07-29T07:28:44;2.33;;;1.97;;
7444;SDS011;3764;48.126;11.594;2022-07-29T07:31:11;2.30;;;2.10;;
7444;SDS011;3764;48.126;11.594;2022-07-29T07:33:40;2.37;;;2.17;;
7444;SDS011;3764;48.126;11.594;2022-07-29T07:36:07;4.13;;;2.90;;
7444;SDS011;3764;48.126;11.594;2022-07-29T07:38:35;4.23;;;2.40;;
7444;SDS011;3764;48.126;11.594;2022-07-29T07:41:02;5.03;;;2.30;;
7444;SDS011;3764;48.126;11.594;2022-07-29T07:43:29;3.77;;;2.33;;
7444;SDS011;3764;48.126;11.594;2022-07-29T07:45:56;3.20;;;2.43;;
7444;SDS011;3764;48.126;11.594;2022-07-29T07:48:23;2.60;;;2.40;;
7444;SDS011;3764;48.126;11.594;2022-07-29T07:50:52;4.17;;;2.17;;
7444;SDS011;3764;48.126;11.594;2022-07-29T07:53:19;2.97;;;2.17;;
7444;SDS011;3764;48.126;11.594;2022-07-29T07:55:46;5.30;;;1.70;;
7444;SDS011;3764;48.126;11.594;2022-07-29T07:58:13;9.50;;;3.50;;
7444;SDS011;3764;48.126;11.594;2022-07-29T08:00:40;5.37;;;3.90;;
7444;SDS011;3764;48.126;11.594;2022-07-29T08:03:08;3.37;;;2.13;;
7444;SDS011;3764;48.126;11.594;2022-07-29T08:05:38;2.93;;;2.40;;
7444;SDS011;3764;48.126;11.594;2022-07-29T08:08:06;2.37;;;1.87;;
7444;SDS011;3764;48.126;11.594;2022-07-29T08:10:34;4.30;;;2.20;;
7444;SDS011;3764;48.126;11.594;2022-07-29T08:13:21;2.40;;;1.93;;
7444;SDS011;3764;48.126;11.594;2022-07-29T08:15:50;3.73;;;2.37;;
7444;SDS011;3764;48.126;11.594;2022-07-29T08:18:23;2.27;;;2.07;;
7444;SDS011;3764;48.126;11.594;2022-07-29T08:20:50;5.60;;;4.93;;
7444;SDS011;3764;48.126;11.594;2022-07-29T08:23:18;3.30;;;2.40;;
7444;SDS011;3764;48.126;11.594;2022-07-29T08:25:45;2.60;;;2.40;;
7444;SDS011;3764;48.126;11.594;2022-07-29T08:28:13;6.60;;;1.90;;
7444;SDS011;3764;48.126;11.594;2022-07-29T08:30:40;3.80;;;2.27;;
7444;SDS011;3764;48.126;11.594;2022-07-29T08:33:07;3.60;;;2.30;;
7444;SDS011;3764;48.126;11.594;2022-07-29T08:35:34;2.20;;;2.00;;
7444;SDS011;3764;48.126;11.594;2022-07-29T08:38:01;4.40;;;4.00;;
7444;SDS011;3764;48.126;11.594;2022-07-29T08:40:30;2.27;;;2.07;;
7444;SDS011;3764;48.126;11.594;2022-07-29T08:42:57;4.83;;;2.33;;
7444;SDS011;3764;48.126;11.594;2022-07-29T08:45:25;2.77;;;2.27;;
7444;SDS011;3764;48.126;11.594;2022-07-29T08:47:53;1.73;;;1.63;;
7444;SDS011;3764;48.126;11.594;2022-07-29T08:50:22;2.50;;;2.07;;
7444;SDS011;3764;48.126;11.594;2022-07-29T08:52:49;2.30;;;2.10;;
7444;SDS011;3764;48.126;11.594;2022-07-29T08:55:17;9.10;;;6.50;;
7444;SDS011;3764;48.126;11.594;2022-07-29T08:57:47;4.73;;;4.07;;
7444;SDS011;3764;48.126;11.594;2022-07-29T09:00:14;4.80;;;4.17;;
7444;SDS011;3764;48.126;11.594;2022-07-29T09:02:43;5.67;;;3.10;;
7444;SDS011;3764;48.126;11.594;2022-07-29T09:05:13;4.17;;;3.10;;
7444;SDS011;3764;48.126;11.594;2022-07-29T09:07:41;3.73;;;3.40;;
7444;SDS011;3764;48.126;11.594;2022-07-29T09:10:09;5.80;;;3.50;;
7444;SDS011;3764;48.126;11.594;2022-07-29T09:12:37;5.20;;;3.53;;
7444;SDS011;3764;48.126;11.594;2022-07-29T09:15:06;5.03;;;2.93;;
7444;SDS011;3764;48.126;11.594;2022-07-29T09:17:41;4.57;;;3.17;;
7444;SDS011;3764;48.126;11.594;2022-07-29T09:20:10;5.10;;;3.07;;
7444;SDS011;3764;48.126;11.594;2022-07-29T09:22:39;3.27;;;2.60;;
7444;SDS011;3764;48.126;11.594;2022-07-29T09:25:05;3.53;;;3.23;;
7444;SDS011;3764;48.126;11.594;2022-07-29T09:27:33;8.63;;;3.57;;
7444;SDS011;3764;48.126;11.594;2022-07-29T09:30:02;3.80;;;3.50;;
7444;SDS011;3764;48.126;11.594;2022-07-29T09:32:32;4.60;;;3.50;;
7444;SDS011;3764;48.126;11.594;2022-07-29T09:35:16;3.13;;;2.80;;
7444;SDS011;3764;48.126;11.594;2022-07-29T09:37:44;3.93;;;3.40;;
7444;SDS011;3764;48.126;11.594;2022-07-29T09:40:12;5.80;;;3.50;;
7444;SDS011;3764;48.126;11.594;2022-07-29T09:42:42;4.00;;;2.90;;
7444;SDS011;3764;48.126;11.594;2022-07-29T09:45:09;4.00;;;3.60;;
7444;SDS011;3764;48.126;11.594;2022-07-29T09:47:43;3.80;;;3.40;;
7444;SDS011;3764;48.126;11.594;2022-07-29T09:50:14;3.90;;;2.97;;
7444;SDS011;3764;48.126;11.594;2022-07-29T09:52:46;6.33;;;3.43;;
7444;SDS011;3764;48.126;11.594;2022-07-29T09:55:14;4.00;;;3.30;;
7444;SDS011;3764;48.126;11.594;2022-07-29T09:57:42;5.90;;;3.93;;
7444;SDS011;3764;48.126;11.594;2022-07-29T10:00:09;3.90;;;3.50;;
7444;SDS011;3764;48.126;11.594;2022-07-29T10:02:38;3.30;;;3.00;;
7444;SDS011;3764;48.126;11.594;2022-07-29T10:05:18;6.40;;;3.90;;
7444;SDS011;3764;48.126;11.594;2022-07-29T10:07:47;4.33;;;3.90;;
7444;SDS011;3764;48.126;11.594;2022-07-29T10:10:18;4.50;;;3.90;;
7444;SDS011;3764;48.126;11.594;2022-07-29T10:12:48;3.40;;;2.97;;
7444;SDS011;3764;48.126;11.594;2022-07-29T10:15:17;5.47;;;3.30;;
7444;SDS011;3764;48.126;11.594;2022-07-29T10:17:45;3.83;;;3.53;;
7444;SDS011;3764;48.126;11.594;2022-07-29T10:20:13;4.57;;;3.67;;
7444;SDS011;3764;48.126;11.594;2022-07-29T10:22:41;4.63;;;4.23;;
7444;SDS011;3764;48.126;11.594;2022-07-29T10:25:09;4.37;;;3.97;;
7444;SDS011;3764;48.126;11.594;2022-07-29T10:27:37;7.73;;;4.03;;
7444;SDS011;3764;48.126;11.594;2022-07-29T10:30:04;4.40;;;3.70;;
7444;SDS011;3764;48.126;11.594;2022-07-29T10:32:34;4.17;;;3.83;;
7444;SDS011;3764;48.126;11.594;2022-07-29T10:35:23;4.63;;;4.07;;
7444;SDS011;3764;48.126;11.594;2022-07-29T10:40:55;4.23;;;3.50;;
7444;SDS011;3764;48.126;11.594;2022-07-29T10:43:47;4.00;;;3.60;;
7444;SDS011;3764;48.126;11.594;2022-07-29T10:46:15;4.70;;;3.90;;
7444;SDS011;3764;48.126;11.594;2022-07-29T10:51:58;5.63;;;3.30;;
7444;SDS011;3764;48.126;11.594;2022-07-29T10:54:40;3.60;;;3.30;;
7444;SDS011;3764;48.126;11.594;2022-07-29T10:57:17;4.30;;;3.83;;
7444;SDS011;3764;48.126;11.594;2022-07-29T10:59:46;4.37;;;3.30;;
7444;SDS011;3764;48.126;11.594;2022-07-29T11:05:17;3.50;;;3.20;;
7444;SDS011;3764;48.126;11.594;2022-07-29T11:10:50;7.00;;;5.07;;
7444;SDS011;3764;48.126;11.594;2022-07-29T11:16:15;3.63;;;3.30;;
7444;SDS011;3764;48.126;11.594;2022-07-29T11:21:50;5.23;;;3.33;;
7444;SDS011;3764;48.126;11.594;2022-07-29T11:24:18;6.07;;;3.77;;
7444;SDS011;3764;48.126;11.594;2022-07-29T11:29:52;6.80;;;5.57;;
7444;SDS011;3764;48.126;11.594;2022-07-29T11:32:21;4.67;;;3.63;;
7444;SDS011;3764;48.126;11.594;2022-07-29T11:35:11;5.33;;;3.57;;
7444;SDS011;3764;48.126;11.594;2022-07-29T11:37:40;3.20;;;2.77;;
7444;SDS011;3764;48.126;11.594;2022-07-29T11:40:09;3.57;;;3.10;;
7444;SDS011;3764;48.126;11.594;2022-07-29T11:42:48;3.37;;;3.07;;
7444;SDS011;3764;48.126;11.594;2022-07-29T11:45:17;5.57;;;3.00;;
7444;SDS011;3764;48.126;11.594;2022-07-29T11:47:57;4.23;;;3.40;;
7444;SDS011;3764;48.126;11.594;2022-07-29T11:50:30;6.20;;;4.87;;
7444;SDS011;3764;48.126;11.594;2022-07-29T11:53:01;4.20;;;3.30;;
7444;SDS011;3764;48.126;11.594;2022-07-29T11:55:29;5.00;;;3.70;;
7444;SDS011;3764;48.126;11.594;2022-07-29T11:58:02;4.00;;;3.57;;
7444;SDS011;3764;48.126;11.594;2022-07-29T12:00:30;8.00;;;6.40;;
7444;SDS011;3764;48.126;11.594;2022-07-29T12:02:58;4.83;;;4.43;;
7444;SDS011;3764;48.126;11.594;2022-07-29T12:05:31;3.60;;;3.20;;
7444;SDS011;3764;48.126;11.594;2022-07-29T12:08:04;3.63;;;3.33;;
7444;SDS011;3764;48.126;11.594;2022-07-29T12:10:44;4.03;;;3.67;;
7444;SDS011;3764;48.126;11.594;2022-07-29T12:13:13;3.10;;;2.80;;
7444;SDS011;3764;48.126;11.594;2022-07-29T12:15:41;6.20;;;3.70;;
7444;SDS011;3764;48.126;11.594;2022-07-29T12:18:13;3.90;;;3.60;;
7444;SDS011;3764;48.126;11.594;2022-07-29T12:20:41;6.73;;;4.50;;
7444;SDS011;3764;48.126;11.594;2022-07-29T12:23:09;8.10;;;7.30;;
7444;SDS011;3764;48.126;11.594;2022-07-29T12:25:38;4.20;;;3.80;;
7444;SDS011;3764;48.126;11.594;2022-07-29T12:28:07;3.70;;;3.30;;
7444;SDS011;3764;48.126;11.594;2022-07-29T12:30:41;5.87;;;4.23;;
7444;SDS011;3764;48.126;11.594;2022-07-29T12:33:10;4.43;;;3.20;;
7444;SDS011;3764;48.126;11.594;2022-07-29T12:35:45;4.03;;;3.67;;
7444;SDS011;3764;48.126;11.594;2022-07-29T12:38:15;3.33;;;3.03;;
7444;SDS011;3764;48.126;11.594;2022-07-29T12:40:43;5.90;;;4.23;;
7444;SDS011;3764;48.126;11.594;2022-07-29T12:43:12;3.50;;;3.20;;
7444;SDS011;3764;48.126;11.594;2022-07-29T12:45:42;5.63;;;3.23;;
7444;SDS011;3764;48.126;11.594;2022-07-29T12:48:10;8.03;;;3.83;;
7444;SDS011;3764;48.126;11.594;2022-07-29T12:50:51;3.90;;;3.40;;
7444;SDS011;3764;48.126;11.594;2022-07-29T12:53:20;4.47;;;4.07;;
7444;SDS011;3764;48.126;11.594;2022-07-29T12:55:48;7.63;;;3.40;;
7444;SDS011;3764;48.126;11.594;2022-07-29T12:58:30;3.53;;;3.20;;
7444;SDS011;3764;48.126;11.594;2022-07-29T13:01:04;6.43;;;5.60;;
7444;SDS011;3764;48.126;11.594;2022-07-29T13:06:28;3.60;;;3.30;;
7444;SDS011;3764;48.126;11.594;2022-07-29T13:09:01;4.43;;;2.93;;
7444;SDS011;3764;48.126;11.594;2022-07-29T13:11:31;4.33;;;3.50;;
7444;SDS011;3764;48.126;11.594;2022-07-29T13:13:59;3.33;;;2.90;;
7444;SDS011;3764;48.126;11.594;2022-07-29T13:16:28;4.57;;;3.67;;
7444;SDS011;3764;48.126;11.594;2022-07-29T13:19:07;5.53;;;3.60;;
7444;SDS011;3764;48.126;11.594;2022-07-29T13:21:36;3.53;;;3.23;;
7444;SDS011;3764;48.126;11.594;2022-07-29T13:24:06;3.20;;;3.00;;
7444;SDS011;3764;48.126;11.594;2022-07-29T13:26:34;4.70;;;3.90;;
7444;SDS011;3764;48.126;11.594;2022-07-29T13:29:08;4.17;;;3.47;;
7444;SDS011;3764;48.126;11.594;2022-07-29T13:31:37;6.70;;;3.90;;
7444;SDS011;3764;48.126;11.594;2022-07-29T13:34:04;4.70;;;3.30;;
7444;SDS011;3764;48.126;11.594;2022-07-29T13:36:34;3.97;;;3.57;;
7444;SDS011;3764;48.126;11.594;2022-07-29T13:39:02;3.53;;;3.20;;
7444;SDS011;3764;48.126;11.594;2022-07-29T13:41:29;4.17;;;3.77;;
7444;SDS011;3764;48.126;11.594;2022-07-29T13:43:57;5.40;;;3.50;;
7444;SDS011;3764;48.126;11.594;2022-07-29T13:46:24;3.80;;;3.40;;
7444;SDS011;3764;48.126;11.594;2022-07-29T13:48:52;6.10;;;4.93;;
7444;SDS011;3764;48.126;11.594;2022-07-29T13:51:19;4.90;;;4.40;;
7444;SDS011;3764;48.126;11.594;2022-07-29T13:53:46;4.03;;;3.63;;
7444;SDS011;3764;48.126;11.594;2022-07-29T13:56:14;5.70;;;3.90;;
7444;SDS011;3764;48.126;11.594;2022-07-29T13:58:41;6.30;;;3.50;;
7444;SDS011;3764;48.126;11.594;2022-07-29T14:01:08;15.80;;;11.50;;
7444;SDS011;3764;48.126;11.594;2022-07-29T14:06:15;6.87;;;5.93;;
7444;SDS011;3764;48.126;11.594;2022-07-29T14:08:42;4.43;;;4.03;;
7444;SDS011;3764;48.126;11.594;2022-07-29T14:11:09;8.53;;;3.43;;
7444;SDS011;3764;48.126;11.594;2022-07-29T14:13:36;6.90;;;4.30;;
7444;SDS011;3764;48.126;11.594;2022-07-29T14:16:03;4.70;;;3.63;;
7444;SDS011;3764;48.126;11.594;2022-07-29T14:18:32;4.20;;;3.80;;
7444;SDS011;3764;48.126;11.594;2022-07-29T14:20:59;4.30;;;3.90;;
7444;SDS011;3764;48.126;11.594;2022-07-29T14:26:22;6.20;;;3.73;;
7444;SDS011;3764;48.126;11.594;2022-07-29T14:28:50;5.20;;;3.47;;
7444;SDS011;3764;48.126;11.594;2022-07-29T14:31:17;3.70;;;3.40;;
7444;SDS011;3764;48.126;11.594;2022-07-29T14:33:44;5.50;;;3.40;;
7444;SDS011;3764;48.126;11.594;2022-07-29T14:36:12;3.90;;;3.50;;
7444;SDS011;3764;48.126;11.594;2022-07-29T14:38:39;12.33;;;8.27;;
7444;SDS011;3764;48.126;11.594;2022-07-29T14:41:06;4.57;;;3.90;;
7444;SDS011;3764;48.126;11.594;2022-07-29T14:43:35;4.07;;;3.60;;
7444;SDS011;3764;48.126;11.594;2022-07-29T14:46:02;5.93;;;2.77;;
7444;SDS011;3764;48.126;11.594;2022-07-29T14:48:30;4.20;;;3.20;;
7444;SDS011;3764;48.126;11.594;2022-07-29T14:50:57;3.10;;;2.77;;
7444;SDS011;3764;48.126;11.594;2022-07-29T14:53:24;3.67;;;3.37;;
7444;SDS011;3764;48.126;11.594;2022-07-29T14:55:51;3.90;;;3.23;;
7444;SDS011;3764;48.126;11.594;2022-07-29T14:58:18;4.20;;;3.80;;
7444;SDS011;3764;48.126;11.594;2022-07-29T15:00:48;3.20;;;2.67;;
7444;SDS011;3764;48.126;11.594;2022-07-29T15:03:15;7.13;;;4.20;;
7444;SDS011;3764;48.126;11.594;2022-07-29T15:05:43;4.40;;;3.27;;
7444;SDS011;3764;48.126;11.594;2022-07-29T15:08:10;4.07;;;3.50;;
7444;SDS011;3764;48.126;11.594;2022-07-29T15:10:38;4.03;;;2.97;;
7444;SDS011;3764;48.126;11.594;2022-07-29T15:13:06;6.43;;;3.30;;
7444;SDS011;3764;48.126;11.594;2022-07-29T15:15:33;3.37;;;3.00;;
7444;SDS011;3764;48.126;11.594;2022-07-29T15:18:01;4.43;;;3.30;;
7444;SDS011;3764;48.126;11.594;2022-07-29T15:20:28;4.10;;;3.17;;
7444;SDS011;3764;48.126;11.594;2022-07-29T15:22:56;4.37;;;3.10;;
7444;SDS011;3764;48.126;11.594;2022-07-29T15:25:24;3.70;;;3.00;;
7444;SDS011;3764;48.126;11.594;2022-07-29T15:27:51;5.43;;;4.17;;
7444;SDS011;3764;48.126;11.594;2022-07-29T15:30:18;3.67;;;3.37;;
7444;SDS011;3764;48.126;11.594;2022-07-29T15:32:46;3.80;;;3.33;;
7444;SDS011;3764;48.126;11.594;2022-07-29T15:35:14;4.03;;;3.40;;
7444;SDS011;3764;48.126;11.594;2022-07-29T15:37:41;3.60;;;3.30;;
7444;SDS011;3764;48.126;11.594;2022-07-29T15:40:09;3.53;;;3.23;;
7444;SDS011;3764;48.126;11.594;2022-07-29T15:42:36;5.30;;;4.10;;
7444;SDS011;3764;48.126;11.594;2022-07-29T15:45:04;5.90;;;3.77;;